sensor_id;sensor_type;location;lat;lon;timestamp;pressure;altitude;pressure_sealevel;temperature;humidity
74218;BME280;62579;47.288;18.646;2023-05-31T00:01:01;100075.72;;;17.10;89.26
74218;BME280;62579;47.288;18.646;2023-05-31T00:03:27;100071.53;;;17.16;89.07
74218;BME280;62579;47.288;18.646;2023-05-31T00:05:52;100068.22;;;17.10;89.54
74218;BME280;62579;47.288;18.646;2023-05-31T00:08:18;100068.34;;;17.05;88.99
74218;BME280;62579;47.288;18.646;2023-05-31T00:10:43;100078.84;;;16.93;89.36
74218;BME280;62579;47.288;18.646;2023-05-31T00:13:09;100079.28;;;16.84;89.53
74218;BME280;62579;47.288;18.646;2023-05-31T00:15:34;100074.13;;;16.80;89.85
74218;BME280;62579;47.288;18.646;2023-05-31T00:18:00;100078.53;;;16.83;89.15
74218;BME280;62579;47.288;18.646;2023-05-31T00:20:25;100078.22;;;16.87;88.75
74218;BME280;62579;47.288;18.646;2023-05-31T00:22:51;100073.88;;;16.92;87.97
74218;BME280;62579;47.288;18.646;2023-05-31T00:25:16;100079.47;;;16.99;87.67
74218;BME280;62579;47.288;18.646;2023-05-31T00:27:42;100079.25;;;16.97;87.04
74218;BME280;62579;47.288;18.646;2023-05-31T00:30:07;100075.44;;;17.00;86.71
74218;BME280;62579;47.288;18.646;2023-05-31T00:32:33;100071.75;;;16.98;87.64
74218;BME280;62579;47.288;18.646;2023-05-31T00:34:58;100074.72;;;16.87;88.51
74218;BME280;62579;47.288;18.646;2023-05-31T00:37:24;100076.78;;;16.86;88.85
74218;BME280;62579;47.288;18.646;2023-05-31T00:39:49;100065.62;;;16.92;88.32
74218;BME280;62579;47.288;18.646;2023-05-31T00:42:14;100075.09;;;16.83;88.40
74218;BME280;62579;47.288;18.646;2023-05-31T00:44:40;100059.69;;;16.67;88.96
74218;BME280;62579;47.288;18.646;2023-05-31T00:47:05;100070.72;;;16.88;88.91
74218;BME280;62579;47.288;18.646;2023-05-31T00:49:32;100064.13;;;16.70;90.39
74218;BME280;62579;47.288;18.646;2023-05-31T00:51:57;100056.47;;;16.76;90.60
74218;BME280;62579;47.288;18.646;2023-05-31T00:54:23;100060.78;;;16.85;90.47
74218;BME280;62579;47.288;18.646;2023-05-31T00:56:49;100056.72;;;16.99;89.22
74218;BME280;62579;47.288;18.646;2023-05-31T00:59:15;100063.03;;;17.07;89.00
74218;BME280;62579;47.288;18.646;2023-05-31T01:01:41;100064.91;;;17.12;88.49
74218;BME280;62579;47.288;18.646;2023-05-31T01:04:08;100067.34;;;17.15;88.40
74218;BME280;62579;47.288;18.646;2023-05-31T01:06:33;100063.44;;;17.11;89.25
74218;BME280;62579;47.288;18.646;2023-05-31T01:09:04;100063.16;;;17.01;89.73
74218;BME280;62579;47.288;18.646;2023-05-31T01:14:22;100068.22;;;16.76;90.98
74218;BME280;62579;47.288;18.646;2023-05-31T01:20:00;100063.59;;;16.71;91.09
74218;BME280;62579;47.288;18.646;2023-05-31T01:22:45;100068.75;;;16.75;90.79
74218;BME280;62579;47.288;18.646;2023-05-31T01:25:26;100067.94;;;16.67;91.09
74218;BME280;62579;47.288;18.646;2023-05-31T01:27:53;100058.38;;;16.81;88.15
74218;BME280;62579;47.288;18.646;2023-05-31T01:30:21;100059.41;;;16.91;85.51
74218;BME280;62579;47.288;18.646;2023-05-31T01:32:46;100062.56;;;16.95;85.06
74218;BME280;62579;47.288;18.646;2023-05-31T01:35:13;100068.66;;;17.01;83.51
74218;BME280;62579;47.288;18.646;2023-05-31T01:37:39;100074.03;;;17.07;83.50
74218;BME280;62579;47.288;18.646;2023-05-31T01:40:06;100070.06;;;16.95;83.07
74218;BME280;62579;47.288;18.646;2023-05-31T01:42:32;100072.28;;;16.96;81.37
74218;BME280;62579;47.288;18.646;2023-05-31T01:44:57;100072.16;;;17.02;81.49
74218;BME280;62579;47.288;18.646;2023-05-31T01:47:23;100069.06;;;17.05;81.02
74218;BME280;62579;47.288;18.646;2023-05-31T01:49:50;100069.75;;;17.19;79.90
74218;BME280;62579;47.288;18.646;2023-05-31T01:52:17;100067.13;;;17.13;79.65
74218;BME280;62579;47.288;18.646;2023-05-31T01:54:44;100072.34;;;17.24;78.64
74218;BME280;62579;47.288;18.646;2023-05-31T01:57:09;100064.47;;;17.21;78.46
74218;BME280;62579;47.288;18.646;2023-05-31T01:59:35;100068.34;;;17.25;77.89
74218;BME280;62579;47.288;18.646;2023-05-31T02:02:03;100066.78;;;17.17;78.64
74218;BME280;62579;47.288;18.646;2023-05-31T02:04:29;100065.53;;;17.18;77.08
74218;BME280;62579;47.288;18.646;2023-05-31T02:06:54;100075.25;;;17.19;77.65
74218;BME280;62579;47.288;18.646;2023-05-31T02:09:20;100065.97;;;17.29;76.98
74218;BME280;62579;47.288;18.646;2023-05-31T02:11:45;100077.53;;;17.28;77.54
74218;BME280;62579;47.288;18.646;2023-05-31T02:14:11;100074.84;;;17.35;77.34
74218;BME280;62579;47.288;18.646;2023-05-31T02:16:36;100078.34;;;17.36;76.98
74218;BME280;62579;47.288;18.646;2023-05-31T02:19:02;100071.34;;;17.35;77.04
74218;BME280;62579;47.288;18.646;2023-05-31T02:21:28;100081.97;;;17.31;77.31
74218;BME280;62579;47.288;18.646;2023-05-31T02:23:54;100077.91;;;17.32;77.72
74218;BME280;62579;47.288;18.646;2023-05-31T02:26:19;100078.34;;;17.36;77.55
74218;BME280;62579;47.288;18.646;2023-05-31T02:28:45;100082.03;;;17.38;75.78
74218;BME280;62579;47.288;18.646;2023-05-31T02:31:10;100081.63;;;17.34;76.38
74218;BME280;62579;47.288;18.646;2023-05-31T02:33:35;100081.09;;;17.36;76.79
74218;BME280;62579;47.288;18.646;2023-05-31T02:36:01;100085.22;;;17.29;74.71
74218;BME280;62579;47.288;18.646;2023-05-31T02:38:27;100082.72;;;17.31;75.21
74218;BME280;62579;47.288;18.646;2023-05-31T02:40:52;100081.09;;;17.36;76.10
74218;BME280;62579;47.288;18.646;2023-05-31T02:43:17;100087.03;;;17.27;75.80
74218;BME280;62579;47.288;18.646;2023-05-31T02:45:43;100081.53;;;17.27;75.66
74218;BME280;62579;47.288;18.646;2023-05-31T02:48:08;100079.16;;;17.23;76.05
74218;BME280;62579;47.288;18.646;2023-05-31T02:50:34;100082.28;;;17.27;75.82
74218;BME280;62579;47.288;18.646;2023-05-31T02:52:59;100085.09;;;17.35;75.88
74218;BME280;62579;47.288;18.646;2023-05-31T02:55:31;100082.72;;;17.31;74.64
74218;BME280;62579;47.288;18.646;2023-05-31T02:57:57;100083.59;;;17.26;74.99
74218;BME280;62579;47.288;18.646;2023-05-31T03:00:23;100085.66;;;17.33;75.10
74218;BME280;62579;47.288;18.646;2023-05-31T03:02:49;100093.34;;;17.35;74.53
74218;BME280;62579;47.288;18.646;2023-05-31T03:05:15;100093.50;;;17.29;74.90
74218;BME280;62579;47.288;18.646;2023-05-31T03:07:41;100085.03;;;17.27;74.70
74218;BME280;62579;47.288;18.646;2023-05-31T03:10:07;100085.16;;;17.22;75.15
74218;BME280;62579;47.288;18.646;2023-05-31T03:12:33;100092.91;;;17.23;75.00
74218;BME280;62579;47.288;18.646;2023-05-31T03:14:59;100094.91;;;17.23;75.42
74218;BME280;62579;47.288;18.646;2023-05-31T03:17:24;100099.06;;;17.16;75.51
74218;BME280;62579;47.288;18.646;2023-05-31T03:19:50;100105.63;;;17.13;75.85
74218;BME280;62579;47.288;18.646;2023-05-31T03:22:15;100102.75;;;17.19;75.36
74218;BME280;62579;47.288;18.646;2023-05-31T03:24:40;100102.16;;;17.13;75.67
74218;BME280;62579;47.288;18.646;2023-05-31T03:27:06;100109.66;;;17.12;75.64
74218;BME280;62579;47.288;18.646;2023-05-31T03:29:33;100108.37;;;17.13;75.73
74218;BME280;62579;47.288;18.646;2023-05-31T03:31:58;100106.34;;;17.14;75.66
74218;BME280;62579;47.288;18.646;2023-05-31T03:34:24;100108.03;;;17.17;75.38
74218;BME280;62579;47.288;18.646;2023-05-31T03:36:49;100112.06;;;17.16;74.51
74218;BME280;62579;47.288;18.646;2023-05-31T03:39:16;100111.87;;;17.14;75.27
74218;BME280;62579;47.288;18.646;2023-05-31T03:41:41;100116.03;;;17.07;75.23
74218;BME280;62579;47.288;18.646;2023-05-31T03:44:06;100106.34;;;17.14;74.83
74218;BME280;62579;47.288;18.646;2023-05-31T03:46:32;100107.97;;;17.09;75.00
74218;BME280;62579;47.288;18.646;2023-05-31T03:48:57;100109.25;;;17.08;74.97
74218;BME280;62579;47.288;18.646;2023-05-31T03:51:23;100111.47;;;17.10;74.35
74218;BME280;62579;47.288;18.646;2023-05-31T03:53:48;100114.00;;;17.08;74.44
74218;BME280;62579;47.288;18.646;2023-05-31T03:56:13;100111.78;;;17.06;74.91
74218;BME280;62579;47.288;18.646;2023-05-31T03:58:39;100109.97;;;17.09;74.81
74218;BME280;62579;47.288;18.646;2023-05-31T04:01:05;100110.72;;;17.09;74.46
74218;BME280;62579;47.288;18.646;2023-05-31T04:03:31;100108.59;;;17.15;74.20
74218;BME280;62579;47.288;18.646;2023-05-31T04:05:57;100115.47;;;17.09;74.61
74218;BME280;62579;47.288;18.646;2023-05-31T04:08:22;100113.34;;;17.15;74.64
74218;BME280;62579;47.288;18.646;2023-05-31T04:10:48;100108.16;;;17.11;74.55
74218;BME280;62579;47.288;18.646;2023-05-31T04:13:13;100114.09;;;17.15;74.75
74218;BME280;62579;47.288;18.646;2023-05-31T04:15:39;100109.19;;;17.21;74.05
74218;BME280;62579;47.288;18.646;2023-05-31T04:18:04;100108.66;;;17.23;74.26
74218;BME280;62579;47.288;18.646;2023-05-31T04:20:30;100108.13;;;17.24;74.64
74218;BME280;62579;47.288;18.646;2023-05-31T04:22:56;100106.44;;;17.21;74.74
74218;BME280;62579;47.288;18.646;2023-05-31T04:25:21;100116.91;;;17.23;74.90
74218;BME280;62579;47.288;18.646;2023-05-31T04:27:47;100114.22;;;17.30;74.52
74218;BME280;62579;47.288;18.646;2023-05-31T04:30:12;100118.37;;;17.24;75.63
74218;BME280;62579;47.288;18.646;2023-05-31T04:32:39;100126.97;;;17.20;75.89
74218;BME280;62579;47.288;18.646;2023-05-31T04:35:05;100121.34;;;17.26;76.03
74218;BME280;62579;47.288;18.646;2023-05-31T04:37:31;100132.34;;;17.26;75.61
74218;BME280;62579;47.288;18.646;2023-05-31T04:39:58;100128.72;;;17.31;75.99
74218;BME280;62579;47.288;18.646;2023-05-31T04:42:24;100132.22;;;17.31;76.20
74218;BME280;62579;47.288;18.646;2023-05-31T04:44:50;100133.34;;;17.36;76.10
74218;BME280;62579;47.288;18.646;2023-05-31T04:47:17;100132.69;;;17.43;75.85
74218;BME280;62579;47.288;18.646;2023-05-31T04:49:44;100135.84;;;17.47;75.47
74218;BME280;62579;47.288;18.646;2023-05-31T04:52:11;100144.38;;;17.57;75.20
74218;BME280;62579;47.288;18.646;2023-05-31T04:54:36;100140.56;;;17.60;74.65
74218;BME280;62579;47.288;18.646;2023-05-31T04:57:01;100138.41;;;17.66;74.10
74218;BME280;62579;47.288;18.646;2023-05-31T04:59:27;100145.69;;;17.56;75.48
74218;BME280;62579;47.288;18.646;2023-05-31T05:01:53;100152.72;;;17.64;74.32
74218;BME280;62579;47.288;18.646;2023-05-31T05:04:18;100151.44;;;17.65;74.67
74218;BME280;62579;47.288;18.646;2023-05-31T05:06:43;100149.91;;;17.77;74.24
74218;BME280;62579;47.288;18.646;2023-05-31T05:09:09;100159.25;;;17.74;73.49
74218;BME280;62579;47.288;18.646;2023-05-31T05:11:34;100164.66;;;17.87;71.75
74218;BME280;62579;47.288;18.646;2023-05-31T05:14:00;100171.63;;;17.88;74.02
74218;BME280;62579;47.288;18.646;2023-05-31T05:16:25;100168.34;;;17.90;72.97
74218;BME280;62579;47.288;18.646;2023-05-31T05:18:51;100167.13;;;17.98;72.43
74218;BME280;62579;47.288;18.646;2023-05-31T05:21:16;100173.56;;;18.01;71.61
74218;BME280;62579;47.288;18.646;2023-05-31T05:23:41;100169.94;;;18.06;71.68
74218;BME280;62579;47.288;18.646;2023-05-31T05:26:07;100171.47;;;18.15;71.56
74218;BME280;62579;47.288;18.646;2023-05-31T05:28:33;100168.44;;;18.26;71.62
74218;BME280;62579;47.288;18.646;2023-05-31T05:30:58;100168.66;;;18.35;71.22
74218;BME280;62579;47.288;18.646;2023-05-31T05:33:24;100168.81;;;18.30;71.13
74218;BME280;62579;47.288;18.646;2023-05-31T05:35:51;100170.62;;;18.27;71.21
74218;BME280;62579;47.288;18.646;2023-05-31T05:38:16;100174.56;;;18.39;71.36
74218;BME280;62579;47.288;18.646;2023-05-31T05:40:42;100178.34;;;18.49;71.15
74218;BME280;62579;47.288;18.646;2023-05-31T05:43:07;100175.94;;;18.53;71.50
74218;BME280;62579;47.288;18.646;2023-05-31T05:45:33;100174.53;;;18.60;70.52
74218;BME280;62579;47.288;18.646;2023-05-31T05:47:58;100170.69;;;18.63;70.68
74218;BME280;62579;47.288;18.646;2023-05-31T05:50:23;100175.13;;;18.66;71.34
74218;BME280;62579;47.288;18.646;2023-05-31T05:52:48;100177.72;;;18.72;71.03
74218;BME280;62579;47.288;18.646;2023-05-31T05:55:15;100179.97;;;18.88;69.13
74218;BME280;62579;47.288;18.646;2023-05-31T05:57:40;100180.19;;;18.90;68.12
74218;BME280;62579;47.288;18.646;2023-05-31T06:00:06;100180.22;;;18.98;68.52
74218;BME280;62579;47.288;18.646;2023-05-31T06:02:39;100183.56;;;19.11;68.62
74218;BME280;62579;47.288;18.646;2023-05-31T06:05:06;100188.53;;;19.20;66.96
74218;BME280;62579;47.288;18.646;2023-05-31T06:07:31;100196.06;;;19.12;69.32
74218;BME280;62579;47.288;18.646;2023-05-31T06:09:57;100190.75;;;19.14;69.77
74218;BME280;62579;47.288;18.646;2023-05-31T06:12:22;100200.13;;;19.19;68.84
74218;BME280;62579;47.288;18.646;2023-05-31T06:14:48;100192.28;;;19.31;68.70
74218;BME280;62579;47.288;18.646;2023-05-31T06:17:14;100192.31;;;19.46;65.48
74218;BME280;62579;47.288;18.646;2023-05-31T06:19:39;100189.00;;;19.47;65.51
74218;BME280;62579;47.288;18.646;2023-05-31T06:22:04;100190.66;;;19.58;63.98
74218;BME280;62579;47.288;18.646;2023-05-31T06:24:30;100190.50;;;19.56;64.98
74218;BME280;62579;47.288;18.646;2023-05-31T06:26:55;100191.06;;;19.54;64.84
74218;BME280;62579;47.288;18.646;2023-05-31T06:29:21;100191.59;;;19.53;65.67
74218;BME280;62579;47.288;18.646;2023-05-31T06:31:46;100191.22;;;19.64;63.96
74218;BME280;62579;47.288;18.646;2023-05-31T06:34:11;100196.75;;;19.71;64.74
74218;BME280;62579;47.288;18.646;2023-05-31T06:36:37;100191.41;;;19.66;63.99
74218;BME280;62579;47.288;18.646;2023-05-31T06:39:02;100194.22;;;19.73;63.67
74218;BME280;62579;47.288;18.646;2023-05-31T06:41:28;100203.94;;;19.52;61.79
74218;BME280;62579;47.288;18.646;2023-05-31T06:43:54;100196.22;;;19.73;61.68
74218;BME280;62579;47.288;18.646;2023-05-31T06:46:20;100190.69;;;19.65;62.92
74218;BME280;62579;47.288;18.646;2023-05-31T06:48:45;100193.66;;;19.75;62.88
74218;BME280;62579;47.288;18.646;2023-05-31T06:51:10;100197.69;;;19.74;63.87
74218;BME280;62579;47.288;18.646;2023-05-31T06:53:36;100202.66;;;19.60;62.93
74218;BME280;62579;47.288;18.646;2023-05-31T06:56:01;100191.97;;;19.64;62.33
74218;BME280;62579;47.288;18.646;2023-05-31T06:58:29;100203.94;;;19.74;62.96
74218;BME280;62579;47.288;18.646;2023-05-31T07:00:58;100196.22;;;19.73;63.06
74218;BME280;62579;47.288;18.646;2023-05-31T07:03:23;100207.44;;;19.67;62.95
74218;BME280;62579;47.288;18.646;2023-05-31T07:05:49;100206.91;;;19.76;60.74
74218;BME280;62579;47.288;18.646;2023-05-31T07:08:14;100216.47;;;19.68;60.59
74218;BME280;62579;47.288;18.646;2023-05-31T07:10:42;100207.84;;;19.87;61.95
74218;BME280;62579;47.288;18.646;2023-05-31T07:13:10;100207.09;;;19.78;59.23
74218;BME280;62579;47.288;18.646;2023-05-31T07:15:36;100207.63;;;19.77;60.73
74218;BME280;62579;47.288;18.646;2023-05-31T07:18:01;100211.13;;;19.85;61.15
74218;BME280;62579;47.288;18.646;2023-05-31T07:20:27;100215.94;;;19.85;59.71
74218;BME280;62579;47.288;18.646;2023-05-31T07:22:52;100209.47;;;19.82;60.28
74218;BME280;62579;47.288;18.646;2023-05-31T07:25:17;100223.50;;;19.76;58.68
74218;BME280;62579;47.288;18.646;2023-05-31T07:27:43;100212.44;;;19.84;59.88
74218;BME280;62579;47.288;18.646;2023-05-31T07:30:08;100214.44;;;19.99;60.32
74218;BME280;62579;47.288;18.646;2023-05-31T07:32:34;100217.22;;;19.99;60.66
74218;BME280;62579;47.288;18.646;2023-05-31T07:34:59;100212.25;;;20.12;61.51
74218;BME280;62579;47.288;18.646;2023-05-31T07:37:24;100209.84;;;20.16;62.35
74218;BME280;62579;47.288;18.646;2023-05-31T07:39:50;100209.13;;;20.31;61.55
74218;BME280;62579;47.288;18.646;2023-05-31T07:42:15;100211.88;;;20.23;59.62
74218;BME280;62579;47.288;18.646;2023-05-31T07:44:40;100210.41;;;20.45;59.59
74218;BME280;62579;47.288;18.646;2023-05-31T07:47:06;100208.00;;;20.42;59.48
74218;BME280;62579;47.288;18.646;2023-05-31T07:49:32;100209.44;;;20.58;59.92
74218;BME280;62579;47.288;18.646;2023-05-31T07:51:57;100209.13;;;20.46;59.76
74218;BME280;62579;47.288;18.646;2023-05-31T07:54:22;100208.38;;;20.46;59.22
74218;BME280;62579;47.288;18.646;2023-05-31T07:56:48;100207.97;;;20.57;58.20
74218;BME280;62579;47.288;18.646;2023-05-31T07:59:13;100212.19;;;20.58;58.75
74218;BME280;62579;47.288;18.646;2023-05-31T08:01:39;100209.00;;;20.76;58.55
74218;BME280;62579;47.288;18.646;2023-05-31T08:04:10;100213.03;;;20.90;56.93
74218;BME280;62579;47.288;18.646;2023-05-31T08:06:36;100215.22;;;21.00;56.59
74218;BME280;62579;47.288;18.646;2023-05-31T08:09:05;100208.25;;;21.31;57.88
74218;BME280;62579;47.288;18.646;2023-05-31T08:11:32;100211.34;;;21.42;57.17
74218;BME280;62579;47.288;18.646;2023-05-31T08:13:57;100199.53;;;21.42;56.50
74218;BME280;62579;47.288;18.646;2023-05-31T08:16:22;100202.25;;;21.49;55.78
74218;BME280;62579;47.288;18.646;2023-05-31T08:18:48;100202.38;;;21.59;57.07
74218;BME280;62579;47.288;18.646;2023-05-31T08:21:14;100193.34;;;21.83;55.36
74218;BME280;62579;47.288;18.646;2023-05-31T08:23:39;100195.72;;;21.62;54.79
74218;BME280;62579;47.288;18.646;2023-05-31T08:26:05;100201.50;;;21.74;54.40
74218;BME280;62579;47.288;18.646;2023-05-31T08:28:30;100200.63;;;21.71;54.14
74218;BME280;62579;47.288;18.646;2023-05-31T08:30:56;100193.22;;;21.98;54.89
74218;BME280;62579;47.288;18.646;2023-05-31T08:33:21;100191.94;;;22.17;54.53
74218;BME280;62579;47.288;18.646;2023-05-31T08:35:47;100192.25;;;22.45;54.37
74218;BME280;62579;47.288;18.646;2023-05-31T08:38:12;100192.87;;;22.36;53.93
74218;BME280;62579;47.288;18.646;2023-05-31T08:40:38;100187.31;;;22.36;54.18
74218;BME280;62579;47.288;18.646;2023-05-31T08:43:09;100199.00;;;22.35;53.01
74218;BME280;62579;47.288;18.646;2023-05-31T08:45:41;100188.69;;;22.62;54.87
74218;BME280;62579;47.288;18.646;2023-05-31T08:48:09;100190.78;;;22.79;52.23
74218;BME280;62579;47.288;18.646;2023-05-31T08:50:36;100197.31;;;22.73;52.88
74218;BME280;62579;47.288;18.646;2023-05-31T08:53:02;100195.91;;;22.65;49.83
74218;BME280;62579;47.288;18.646;2023-05-31T08:55:29;100198.59;;;22.72;50.85
74218;BME280;62579;47.288;18.646;2023-05-31T08:57:56;100199.34;;;22.73;49.85
74218;BME280;62579;47.288;18.646;2023-05-31T09:00:22;100197.38;;;22.83;50.50
74218;BME280;62579;47.288;18.646;2023-05-31T09:02:49;100204.53;;;23.03;49.10
74218;BME280;62579;47.288;18.646;2023-05-31T09:05:16;100204.16;;;22.72;49.97
74218;BME280;62579;47.288;18.646;2023-05-31T09:07:42;100195.50;;;22.86;48.33
74218;BME280;62579;47.288;18.646;2023-05-31T09:10:08;100201.44;;;22.99;48.67
74218;BME280;62579;47.288;18.646;2023-05-31T09:12:37;100194.81;;;22.95;48.91
74218;BME280;62579;47.288;18.646;2023-05-31T09:15:05;100186.78;;;23.16;48.28
74218;BME280;62579;47.288;18.646;2023-05-31T09:17:31;100185.59;;;23.36;48.77
74218;BME280;62579;47.288;18.646;2023-05-31T09:19:59;100184.47;;;23.22;48.46
74218;BME280;62579;47.288;18.646;2023-05-31T09:22:25;100180.84;;;23.02;47.28
74218;BME280;62579;47.288;18.646;2023-05-31T09:24:59;100186.66;;;23.41;48.86
74218;BME280;62579;47.288;18.646;2023-05-31T09:27:26;100177.53;;;23.67;48.37
74218;BME280;62579;47.288;18.646;2023-05-31T09:29:54;100184.84;;;23.36;46.05
74218;BME280;62579;47.288;18.646;2023-05-31T09:32:20;100178.00;;;23.37;46.49
74218;BME280;62579;47.288;18.646;2023-05-31T09:34:46;100177.19;;;23.53;47.90
74218;BME280;62579;47.288;18.646;2023-05-31T09:37:22;100176.09;;;23.75;47.21
74218;BME280;62579;47.288;18.646;2023-05-31T09:39:57;100176.25;;;23.77;46.97
74218;BME280;62579;47.288;18.646;2023-05-31T09:42:26;100175.87;;;24.00;49.26
74218;BME280;62579;47.288;18.646;2023-05-31T09:44:54;100177.06;;;23.97;46.35
74218;BME280;62579;47.288;18.646;2023-05-31T09:47:24;100177.78;;;23.98;46.67
74218;BME280;62579;47.288;18.646;2023-05-31T09:49:53;100176.03;;;24.02;47.06
74218;BME280;62579;47.288;18.646;2023-05-31T09:52:25;100177.47;;;23.93;46.88
74218;BME280;62579;47.288;18.646;2023-05-31T09:54:51;100180.03;;;24.09;46.27
74218;BME280;62579;47.288;18.646;2023-05-31T09:57:30;100173.53;;;23.97;44.54
74218;BME280;62579;47.288;18.646;2023-05-31T09:59:57;100171.09;;;24.10;46.32
74218;BME280;62579;47.288;18.646;2023-05-31T10:02:24;100162.94;;;24.31;45.46
74218;BME280;62579;47.288;18.646;2023-05-31T10:04:50;100161.91;;;24.46;46.22
74218;BME280;62579;47.288;18.646;2023-05-31T10:07:16;100166.47;;;24.41;47.79
74218;BME280;62579;47.288;18.646;2023-05-31T10:09:43;100161.47;;;24.59;47.33
74218;BME280;62579;47.288;18.646;2023-05-31T10:12:09;100162.22;;;24.60;46.54
74218;BME280;62579;47.288;18.646;2023-05-31T10:14:37;100166.28;;;24.78;45.71
74218;BME280;62579;47.288;18.646;2023-05-31T10:17:05;100161.63;;;24.71;46.24
74218;BME280;62579;47.288;18.646;2023-05-31T10:19:49;100158.41;;;24.45;44.90
74218;BME280;62579;47.288;18.646;2023-05-31T10:22:17;100153.41;;;24.54;44.85
74218;BME280;62579;47.288;18.646;2023-05-31T10:27:44;100156.47;;;24.96;45.29
74218;BME280;62579;47.288;18.646;2023-05-31T10:30:13;100163.59;;;25.18;45.96
74218;BME280;62579;47.288;18.646;2023-05-31T10:32:45;100162.03;;;25.05;44.00
74218;BME280;62579;47.288;18.646;2023-05-31T10:35:11;100160.81;;;25.18;44.17
74218;BME280;62579;47.288;18.646;2023-05-31T10:37:40;100154.94;;;25.24;42.88
74218;BME280;62579;47.288;18.646;2023-05-31T10:40:16;100154.59;;;24.89;44.45
74218;BME280;62579;47.288;18.646;2023-05-31T10:45:36;100144.41;;;25.22;43.29
74218;BME280;62579;47.288;18.646;2023-05-31T10:48:10;100151.06;;;24.98;44.20
74218;BME280;62579;47.288;18.646;2023-05-31T10:50:58;100147.12;;;25.32;42.86
74218;BME280;62579;47.288;18.646;2023-05-31T10:53:28;100153.81;;;25.57;42.49
74218;BME280;62579;47.288;18.646;2023-05-31T10:56:06;100149.00;;;25.48;40.71
74218;BME280;62579;47.288;18.646;2023-05-31T10:58:37;100147.03;;;25.20;43.96
74218;BME280;62579;47.288;18.646;2023-05-31T11:01:07;100136.78;;;25.13;42.51
74218;BME280;62579;47.288;18.646;2023-05-31T11:03:35;100138.66;;;25.30;42.43
74218;BME280;62579;47.288;18.646;2023-05-31T11:06:03;100140.81;;;25.31;42.97
74218;BME280;62579;47.288;18.646;2023-05-31T11:08:29;100136.84;;;25.44;42.64
74218;BME280;62579;47.288;18.646;2023-05-31T11:14:04;100138.28;;;25.54;41.72
74218;BME280;62579;47.288;18.646;2023-05-31T11:17:17;100134.19;;;25.36;40.75
74218;BME280;62579;47.288;18.646;2023-05-31T11:21:55;100117.28;;;26.05;42.41
74218;BME280;62579;47.288;18.646;2023-05-31T11:27:17;100115.28;;;25.96;41.24
74218;BME280;62579;47.288;18.646;2023-05-31T11:32:21;100118.94;;;25.99;41.28
74218;BME280;62579;47.288;18.646;2023-05-31T11:34:58;100106.66;;;25.92;39.51
74218;BME280;62579;47.288;18.646;2023-05-31T11:37:33;100107.66;;;25.97;39.79
74218;BME280;62579;47.288;18.646;2023-05-31T11:40:01;100100.38;;;26.03;39.53
74218;BME280;62579;47.288;18.646;2023-05-31T11:42:30;100102.16;;;26.41;39.92
74218;BME280;62579;47.288;18.646;2023-05-31T11:44:56;100100.00;;;26.40;40.44
74218;BME280;62579;47.288;18.646;2023-05-31T11:47:26;100100.59;;;26.38;40.01
74218;BME280;62579;47.288;18.646;2023-05-31T11:49:52;100103.16;;;26.13;39.07
74218;BME280;62579;47.288;18.646;2023-05-31T11:52:19;100092.00;;;26.13;37.68
74218;BME280;62579;47.288;18.646;2023-05-31T11:54:48;100096.75;;;26.01;37.66
74218;BME280;62579;47.288;18.646;2023-05-31T11:57:15;100096.22;;;26.35;38.40
74218;BME280;62579;47.288;18.646;2023-05-31T11:59:42;100087.97;;;26.37;38.34
74218;BME280;62579;47.288;18.646;2023-05-31T12:04:46;100095.25;;;26.75;37.62
74218;BME280;62579;47.288;18.646;2023-05-31T12:10:16;100088.19;;;26.62;38.33
74218;BME280;62579;47.288;18.646;2023-05-31T12:12:41;100087.75;;;26.77;38.77
74218;BME280;62579;47.288;18.646;2023-05-31T12:15:07;100082.09;;;27.10;37.92
74218;BME280;62579;47.288;18.646;2023-05-31T12:17:37;100083.41;;;27.09;38.84
74218;BME280;62579;47.288;18.646;2023-05-31T12:20:03;100079.53;;;27.03;37.93
74218;BME280;62579;47.288;18.646;2023-05-31T12:22:30;100082.13;;;26.33;38.38
74218;BME280;62579;47.288;18.646;2023-05-31T12:24:55;100079.81;;;26.62;37.94
74218;BME280;62579;47.288;18.646;2023-05-31T12:27:26;100081.25;;;26.63;38.82
74218;BME280;62579;47.288;18.646;2023-05-31T12:29:56;100076.78;;;26.70;38.15
74218;BME280;62579;47.288;18.646;2023-05-31T12:32:22;100071.91;;;26.59;38.81
74218;BME280;62579;47.288;18.646;2023-05-31T12:34:52;100073.03;;;26.77;38.83
74218;BME280;62579;47.288;18.646;2023-05-31T12:37:17;100067.00;;;26.80;38.86
74218;BME280;62579;47.288;18.646;2023-05-31T12:39:45;100067.47;;;27.00;37.83
74218;BME280;62579;47.288;18.646;2023-05-31T12:42:10;100056.69;;;27.18;37.28
74218;BME280;62579;47.288;18.646;2023-05-31T12:44:36;100058.53;;;27.13;37.01
74218;BME280;62579;47.288;18.646;2023-05-31T12:47:07;100058.97;;;26.98;38.23
74218;BME280;62579;47.288;18.646;2023-05-31T12:49:34;100052.56;;;27.07;38.30
74218;BME280;62579;47.288;18.646;2023-05-31T12:54:34;100055.03;;;26.68;38.86
74218;BME280;62579;47.288;18.646;2023-05-31T12:57:01;100057.63;;;26.32;40.06
74218;BME280;62579;47.288;18.646;2023-05-31T12:59:27;100054.37;;;26.47;39.25
74218;BME280;62579;47.288;18.646;2023-05-31T13:01:56;100057.09;;;26.23;40.09
74218;BME280;62579;47.288;18.646;2023-05-31T13:04:22;100050.87;;;25.71;40.90
74218;BME280;62579;47.288;18.646;2023-05-31T13:06:47;100047.03;;;26.18;40.47
74218;BME280;62579;47.288;18.646;2023-05-31T13:09:14;100046.78;;;26.26;39.31